sensor_id;sensor_type;location;lat;lon;timestamp;pressure;altitude;pressure_sealevel;temperature;humidity
40384;BME280;26097;42.366;23.818;2023-02-22T00:02:02;93951.16;;;10.04;42.33
40384;BME280;26097;42.366;23.818;2023-02-22T00:05:27;93950.00;;;10.42;41.72
40384;BME280;26097;42.366;23.818;2023-02-22T00:08:38;93957.75;;;10.88;41.32
40384;BME280;26097;42.366;23.818;2023-02-22T00:11:44;93957.69;;;11.11;40.83
40384;BME280;26097;42.366;23.818;2023-02-22T00:14:45;93960.94;;;11.36;40.33
40384;BME280;26097;42.366;23.818;2023-02-22T00:17:46;93959.34;;;11.45;40.02
40384;BME280;26097;42.366;23.818;2023-02-22T00:20:46;93974.50;;;11.18;40.04
40384;BME280;26097;42.366;23.818;2023-02-22T00:23:47;93967.63;;;10.73;40.06
40384;BME280;26097;42.366;23.818;2023-02-22T00:26:52;93968.44;;;10.39;40.25
40384;BME280;26097;42.366;23.818;2023-02-22T00:29:55;93969.75;;;10.34;40.38
40384;BME280;26097;42.366;23.818;2023-02-22T00:32:57;93969.91;;;10.43;40.29
40384;BME280;26097;42.366;23.818;2023-02-22T00:35:58;93959.22;;;10.69;39.79
40384;BME280;26097;42.366;23.818;2023-02-22T00:38:58;93969.16;;;10.76;39.68
40384;BME280;26097;42.366;23.818;2023-02-22T00:41:58;93971.50;;;10.90;39.59
40384;BME280;26097;42.366;23.818;2023-02-22T00:44:59;93970.22;;;11.28;38.65
40384;BME280;26097;42.366;23.818;2023-02-22T00:48:00;93965.81;;;11.29;38.41
40384;BME280;26097;42.366;23.818;2023-02-22T00:51:01;93965.25;;;11.25;38.39
40384;BME280;26097;42.366;23.818;2023-02-22T00:54:01;93958.13;;;11.27;38.26
40384;BME280;26097;42.366;23.818;2023-02-22T00:57:02;93960.28;;;11.22;38.66
40384;BME280;26097;42.366;23.818;2023-02-22T01:00:06;93958.84;;;11.18;38.50
40384;BME280;26097;42.366;23.818;2023-02-22T01:03:14;93964.13;;;10.95;39.36
40384;BME280;26097;42.366;23.818;2023-02-22T01:06:15;93959.22;;;10.69;39.85
40384;BME280;26097;42.366;23.818;2023-02-22T01:09:15;93967.28;;;10.55;39.83
40384;BME280;26097;42.366;23.818;2023-02-22T01:12:15;93966.47;;;10.54;39.70
40384;BME280;26097;42.366;23.818;2023-02-22T01:15:20;93961.31;;;10.19;40.10
40384;BME280;26097;42.366;23.818;2023-02-22T01:18:21;93960.03;;;10.13;40.21
40384;BME280;26097;42.366;23.818;2023-02-22T01:21:22;93964.50;;;10.11;39.97
40384;BME280;26097;42.366;23.818;2023-02-22T01:24:22;93971.47;;;9.99;39.97
40384;BME280;26097;42.366;23.818;2023-02-22T01:27:23;93969.56;;;9.90;40.20
40384;BME280;26097;42.366;23.818;2023-02-22T01:30:26;93964.84;;;9.95;39.61
40384;BME280;26097;42.366;23.818;2023-02-22T01:33:27;93969.53;;;9.78;40.14
40384;BME280;26097;42.366;23.818;2023-02-22T01:36:28;93962.63;;;10.02;39.48
40384;BME280;26097;42.366;23.818;2023-02-22T01:39:28;93961.78;;;9.90;39.52
40384;BME280;26097;42.366;23.818;2023-02-22T01:42:29;93964.03;;;10.06;39.25
40384;BME280;26097;42.366;23.818;2023-02-22T01:48:31;93962.44;;;9.80;39.49
40384;BME280;26097;42.366;23.818;2023-02-22T01:51:40;93969.09;;;9.13;41.77
40384;BME280;26097;42.366;23.818;2023-02-22T01:54:49;93967.00;;;8.56;42.28
40384;BME280;26097;42.366;23.818;2023-02-22T01:57:51;93968.53;;;8.46;42.01
40384;BME280;26097;42.366;23.818;2023-02-22T02:00:52;93965.13;;;8.20;42.46
40384;BME280;26097;42.366;23.818;2023-02-22T02:03:55;93960.38;;;7.88;42.68
40384;BME280;26097;42.366;23.818;2023-02-22T02:07:00;93957.25;;;7.82;42.56
40384;BME280;26097;42.366;23.818;2023-02-22T02:10:07;93952.03;;;7.56;42.94
40384;BME280;26097;42.366;23.818;2023-02-22T02:13:10;93959.44;;;7.22;43.65
40384;BME280;26097;42.366;23.818;2023-02-22T02:16:11;93954.38;;;6.93;44.19
40384;BME280;26097;42.366;23.818;2023-02-22T02:35:51;93953.47;;;5.65;46.74
40384;BME280;26097;42.366;23.818;2023-02-22T02:41:56;93953.63;;;5.77;46.47
40384;BME280;26097;42.366;23.818;2023-02-22T02:45:05;93953.19;;;5.70;47.99
40384;BME280;26097;42.366;23.818;2023-02-22T02:48:13;93954.19;;;5.67;47.03
40384;BME280;26097;42.366;23.818;2023-02-22T02:51:15;93952.91;;;5.75;46.57
40384;BME280;26097;42.366;23.818;2023-02-22T02:54:16;93954.28;;;5.51;47.23
40384;BME280;26097;42.366;23.818;2023-02-22T02:57:17;93961.25;;;5.35;48.00
40384;BME280;26097;42.366;23.818;2023-02-22T03:00:23;93966.72;;;5.14;49.25
40384;BME280;26097;42.366;23.818;2023-02-22T03:07:01;93973.78;;;4.80;49.54
40384;BME280;26097;42.366;23.818;2023-02-22T03:14:28;93970.44;;;4.46;52.10
40384;BME280;26097;42.366;23.818;2023-02-22T03:24:03;93974.06;;;4.09;52.26
40384;BME280;26097;42.366;23.818;2023-02-22T03:27:09;93976.13;;;4.03;51.80
40384;BME280;26097;42.366;23.818;2023-02-22T03:30:35;93974.38;;;4.03;52.17
40384;BME280;26097;42.366;23.818;2023-02-22T03:33:46;93975.13;;;4.05;52.00
40384;BME280;26097;42.366;23.818;2023-02-22T03:36:59;93982.72;;;4.08;52.38
40384;BME280;26097;42.366;23.818;2023-02-22T03:40:04;93977.34;;;3.95;52.53
40384;BME280;26097;42.366;23.818;2023-02-22T03:43:15;93980.06;;;4.10;51.84
40384;BME280;26097;42.366;23.818;2023-02-22T03:46:17;93982.41;;;4.14;52.74
40384;BME280;26097;42.366;23.818;2023-02-22T03:52:29;93984.06;;;4.16;52.72
40384;BME280;26097;42.366;23.818;2023-02-22T03:55:29;93983.59;;;4.57;51.79
40384;BME280;26097;42.366;23.818;2023-02-22T03:58:30;93985.75;;;5.27;51.46
40384;BME280;26097;42.366;23.818;2023-02-22T04:01:34;93984.38;;;5.22;50.60
40384;BME280;26097;42.366;23.818;2023-02-22T04:04:35;93987.91;;;5.05;50.55
40384;BME280;26097;42.366;23.818;2023-02-22T04:07:35;93985.56;;;5.16;51.39
40384;BME280;26097;42.366;23.818;2023-02-22T04:10:35;93993.88;;;5.21;52.09
40384;BME280;26097;42.366;23.818;2023-02-22T04:13:37;93991.22;;;5.23;50.82
40384;BME280;26097;42.366;23.818;2023-02-22T04:16:37;93991.03;;;5.26;50.79
40384;BME280;26097;42.366;23.818;2023-02-22T04:19:39;93996.63;;;5.18;51.27
40384;BME280;26097;42.366;23.818;2023-02-22T04:22:40;93986.41;;;5.00;51.83
40384;BME280;26097;42.366;23.818;2023-02-22T04:25:40;93996.81;;;4.99;52.21
40384;BME280;26097;42.366;23.818;2023-02-22T04:28:40;94000.28;;;4.83;52.40
40384;BME280;26097;42.366;23.818;2023-02-22T04:31:41;93991.69;;;4.67;53.05
40384;BME280;26097;42.366;23.818;2023-02-22T04:34:41;93993.94;;;4.57;53.17
40384;BME280;26097;42.366;23.818;2023-02-22T04:37:42;93997.84;;;4.48;53.90
40384;BME280;26097;42.366;23.818;2023-02-22T04:40:42;93992.56;;;4.34;54.28
40384;BME280;26097;42.366;23.818;2023-02-22T04:43:42;93994.97;;;4.21;55.26
40384;BME280;26097;42.366;23.818;2023-02-22T04:46:43;93993.00;;;4.42;56.81
40384;BME280;26097;42.366;23.818;2023-02-22T04:49:45;93995.22;;;4.32;55.73
40384;BME280;26097;42.366;23.818;2023-02-22T04:52:46;93995.44;;;4.11;56.21
40384;BME280;26097;42.366;23.818;2023-02-22T04:55:46;93998.84;;;3.96;57.00
40384;BME280;26097;42.366;23.818;2023-02-22T04:58:47;93999.28;;;3.86;57.13
40384;BME280;26097;42.366;23.818;2023-02-22T05:01:47;93996.44;;;3.75;57.40
40384;BME280;26097;42.366;23.818;2023-02-22T05:04:48;93996.00;;;3.67;58.21
40384;BME280;26097;42.366;23.818;2023-02-22T05:07:49;94005.38;;;3.50;60.18
40384;BME280;26097;42.366;23.818;2023-02-22T05:10:49;94004.09;;;3.41;59.89
40384;BME280;26097;42.366;23.818;2023-02-22T05:13:49;94008.38;;;3.25;59.96
40384;BME280;26097;42.366;23.818;2023-02-22T05:16:50;94005.31;;;3.17;60.12
40384;BME280;26097;42.366;23.818;2023-02-22T05:19:50;94017.03;;;3.05;60.54
40384;BME280;26097;42.366;23.818;2023-02-22T05:22:51;94011.34;;;2.98;60.71
40384;BME280;26097;42.366;23.818;2023-02-22T05:25:51;94014.13;;;2.93;61.31
40384;BME280;26097;42.366;23.818;2023-02-22T05:28:51;94017.91;;;2.86;61.22
40384;BME280;26097;42.366;23.818;2023-02-22T05:31:52;94017.19;;;2.82;62.46
40384;BME280;26097;42.366;23.818;2023-02-22T05:34:52;94028.19;;;2.86;61.65
40384;BME280;26097;42.366;23.818;2023-02-22T05:37:53;94030.56;;;2.71;62.91
40384;BME280;26097;42.366;23.818;2023-02-22T05:40:53;94029.34;;;2.61;63.20
40384;BME280;26097;42.366;23.818;2023-02-22T05:43:54;94026.16;;;2.56;64.00
40384;BME280;26097;42.366;23.818;2023-02-22T05:46:54;94039.13;;;2.53;64.23
40384;BME280;26097;42.366;23.818;2023-02-22T05:49:55;94040.97;;;2.70;63.30
40384;BME280;26097;42.366;23.818;2023-02-22T05:52:55;94041.72;;;2.72;63.67
40384;BME280;26097;42.366;23.818;2023-02-22T05:55:56;94048.69;;;2.70;63.63
40384;BME280;26097;42.366;23.818;2023-02-22T05:58:56;94045.06;;;2.74;63.00
40384;BME280;26097;42.366;23.818;2023-02-22T06:01:57;94049.72;;;2.85;63.05
40384;BME280;26097;42.366;23.818;2023-02-22T06:04:58;94048.09;;;3.02;63.01
40384;BME280;26097;42.366;23.818;2023-02-22T06:07:59;94048.28;;;3.16;63.79
40384;BME280;26097;42.366;23.818;2023-02-22T06:10:59;94046.91;;;3.26;62.94
40384;BME280;26097;42.366;23.818;2023-02-22T06:13:59;94053.97;;;3.40;63.68
40384;BME280;26097;42.366;23.818;2023-02-22T06:17:00;94048.22;;;3.53;63.27
40384;BME280;26097;42.366;23.818;2023-02-22T06:20:01;94044.97;;;3.67;63.59
40384;BME280;26097;42.366;23.818;2023-02-22T06:23:02;94044.06;;;3.68;64.45
40384;BME280;26097;42.366;23.818;2023-02-22T06:26:02;94036.03;;;3.74;64.34
40384;BME280;26097;42.366;23.818;2023-02-22T06:29:03;94033.28;;;3.95;65.73
40384;BME280;26097;42.366;23.818;2023-02-22T06:32:05;94038.31;;;4.14;64.27
40384;BME280;26097;42.366;23.818;2023-02-22T06:35:06;94033.53;;;4.40;63.91
40384;BME280;26097;42.366;23.818;2023-02-22T06:38:07;94029.06;;;4.60;63.91
40384;BME280;26097;42.366;23.818;2023-02-22T06:41:08;94035.41;;;4.86;65.06
40384;BME280;26097;42.366;23.818;2023-02-22T06:44:09;94035.16;;;5.23;63.57
40384;BME280;26097;42.366;23.818;2023-02-22T06:47:09;94030.00;;;5.53;62.88
40384;BME280;26097;42.366;23.818;2023-02-22T06:50:22;94031.97;;;5.79;63.94
40384;BME280;26097;42.366;23.818;2023-02-22T06:53:23;94026.06;;;6.22;60.37
40384;BME280;26097;42.366;23.818;2023-02-22T06:56:24;94035.13;;;6.43;59.87
40384;BME280;26097;42.366;23.818;2023-02-22T06:59:24;94026.41;;;6.74;59.32
40384;BME280;26097;42.366;23.818;2023-02-22T07:02:24;94022.63;;;7.07;58.14
40384;BME280;26097;42.366;23.818;2023-02-22T07:05:26;94023.00;;;7.55;56.19
40384;BME280;26097;42.366;23.818;2023-02-22T07:08:27;94029.31;;;7.92;55.27
40384;BME280;26097;42.366;23.818;2023-02-22T07:11:28;94028.81;;;8.12;54.58
40384;BME280;26097;42.366;23.818;2023-02-22T07:14:28;94020.91;;;8.27;54.53
40384;BME280;26097;42.366;23.818;2023-02-22T07:17:29;94022.66;;;8.39;54.14
40384;BME280;26097;42.366;23.818;2023-02-22T07:20:30;94011.47;;;8.52;53.88
40384;BME280;26097;42.366;23.818;2023-02-22T07:23:30;94017.00;;;8.84;53.43
40384;BME280;26097;42.366;23.818;2023-02-22T07:26:38;94010.97;;;8.97;53.05
40384;BME280;26097;42.366;23.818;2023-02-22T07:29:42;94014.41;;;9.22;52.71
40384;BME280;26097;42.366;23.818;2023-02-22T07:32:43;94017.97;;;9.56;50.41
40384;BME280;26097;42.366;23.818;2023-02-22T07:35:46;94012.78;;;9.56;50.91
40384;BME280;26097;42.366;23.818;2023-02-22T07:38:46;94012.84;;;9.68;50.75
40384;BME280;26097;42.366;23.818;2023-02-22T07:41:47;94008.78;;;9.99;49.43
40384;BME280;26097;42.366;23.818;2023-02-22T07:44:47;94012.25;;;10.34;46.94
40384;BME280;26097;42.366;23.818;2023-02-22T07:47:47;94013.00;;;10.82;47.22
40384;BME280;26097;42.366;23.818;2023-02-22T07:50:48;94015.44;;;11.18;45.28
40384;BME280;26097;42.366;23.818;2023-02-22T07:53:49;94020.03;;;11.25;44.42
40384;BME280;26097;42.366;23.818;2023-02-22T07:56:49;94018.59;;;11.33;44.61
40384;BME280;26097;42.366;23.818;2023-02-22T07:59:50;94010.50;;;11.47;44.17
40384;BME280;26097;42.366;23.818;2023-02-22T08:02:51;94004.03;;;11.63;44.10
40384;BME280;26097;42.366;23.818;2023-02-22T08:05:53;94002.88;;;11.98;43.39
40384;BME280;26097;42.366;23.818;2023-02-22T08:08:54;94011.22;;;12.03;42.79
40384;BME280;26097;42.366;23.818;2023-02-22T08:11:54;94010.97;;;12.06;41.84
40384;BME280;26097;42.366;23.818;2023-02-22T08:14:55;94003.56;;;12.11;41.60
40384;BME280;26097;42.366;23.818;2023-02-22T08:17:57;94003.03;;;12.39;41.43
40384;BME280;26097;42.366;23.818;2023-02-22T08:20:57;94011.03;;;12.47;41.21
40384;BME280;26097;42.366;23.818;2023-02-22T08:23:57;94001.59;;;12.56;40.84
40384;BME280;26097;42.366;23.818;2023-02-22T08:26:58;93986.66;;;12.68;41.40
40384;BME280;26097;42.366;23.818;2023-02-22T08:29:59;93990.66;;;12.72;41.14
40384;BME280;26097;42.366;23.818;2023-02-22T08:32:59;93994.53;;;12.78;41.14
40384;BME280;26097;42.366;23.818;2023-02-22T08:36:01;93993.44;;;12.80;41.27
40384;BME280;26097;42.366;23.818;2023-02-22T08:39:02;93988.78;;;12.84;41.37
40384;BME280;26097;42.366;23.818;2023-02-22T08:42:02;93987.84;;;12.95;41.22
40384;BME280;26097;42.366;23.818;2023-02-22T08:45:03;93982.75;;;13.03;40.98
40384;BME280;26097;42.366;23.818;2023-02-22T08:48:03;93976.16;;;13.09;41.06
40384;BME280;26097;42.366;23.818;2023-02-22T08:51:04;93988.84;;;13.04;40.25
40384;BME280;26097;42.366;23.818;2023-02-22T08:54:04;93976.59;;;13.24;39.51
40384;BME280;26097;42.366;23.818;2023-02-22T08:57:06;93971.84;;;13.59;39.42
40384;BME280;26097;42.366;23.818;2023-02-22T09:00:07;93977.09;;;13.59;39.34
40384;BME280;26097;42.366;23.818;2023-02-22T09:03:09;93981.63;;;13.56;39.50
40384;BME280;26097;42.366;23.818;2023-02-22T09:06:12;93974.03;;;13.63;40.33
40384;BME280;26097;42.366;23.818;2023-02-22T09:09:12;93973.22;;;13.82;39.59
40384;BME280;26097;42.366;23.818;2023-02-22T09:12:13;93969.06;;;13.90;39.42
40384;BME280;26097;42.366;23.818;2023-02-22T09:15:13;93962.44;;;13.85;39.72
40384;BME280;26097;42.366;23.818;2023-02-22T09:18:14;93956.34;;;13.95;39.30
40384;BME280;26097;42.366;23.818;2023-02-22T09:21:17;93958.03;;;14.06;39.77
40384;BME280;26097;42.366;23.818;2023-02-22T09:24:17;93957.16;;;14.15;39.42
40384;BME280;26097;42.366;23.818;2023-02-22T09:27:17;93948.44;;;14.14;39.16
40384;BME280;26097;42.366;23.818;2023-02-22T09:33:20;93946.59;;;14.45;38.40
40384;BME280;26097;42.366;23.818;2023-02-22T09:36:21;93935.56;;;14.69;38.33
40384;BME280;26097;42.366;23.818;2023-02-22T09:39:21;93956.75;;;14.95;36.67
40384;BME280;26097;42.366;23.818;2023-02-22T09:42:34;93946.81;;;14.89;36.89
40384;BME280;26097;42.366;23.818;2023-02-22T09:52:15;93944.88;;;14.91;34.36
40384;BME280;26097;42.366;23.818;2023-02-22T09:55:32;93933.75;;;15.07;36.09
40384;BME280;26097;42.366;23.818;2023-02-22T09:58:38;93931.13;;;15.25;35.54
40384;BME280;26097;42.366;23.818;2023-02-22T10:01:45;93938.56;;;15.48;35.78
40384;BME280;26097;42.366;23.818;2023-02-22T10:05:39;93927.16;;;15.57;35.29
40384;BME280;26097;42.366;23.818;2023-02-22T10:08:20;93915.81;;;15.57;35.52
40384;BME280;26097;42.366;23.818;2023-02-22T10:21:34;93915.59;;;15.50;36.46
40384;BME280;26097;42.366;23.818;2023-02-22T10:24:52;93908.38;;;15.52;36.35
40384;BME280;26097;42.366;23.818;2023-02-22T10:31:01;93928.50;;;15.62;36.75
40384;BME280;26097;42.366;23.818;2023-02-22T10:34:20;93889.91;;;15.62;36.35
40384;BME280;26097;42.366;23.818;2023-02-22T10:37:28;93891.41;;;15.83;35.87
40384;BME280;26097;42.366;23.818;2023-02-22T10:40:29;93882.22;;;15.87;35.80
40384;BME280;26097;42.366;23.818;2023-02-22T10:43:33;93879.19;;;16.00;35.89
40384;BME280;26097;42.366;23.818;2023-02-22T10:46:33;93872.47;;;15.79;35.79
40384;BME280;26097;42.366;23.818;2023-02-22T10:49:37;93869.06;;;15.61;35.50
40384;BME280;26097;42.366;23.818;2023-02-22T10:52:39;93866.47;;;15.69;34.88
40384;BME280;26097;42.366;23.818;2023-02-22T10:59:04;93854.31;;;15.68;35.62
40384;BME280;26097;42.366;23.818;2023-02-22T11:05:38;93849.00;;;16.04;34.14
40384;BME280;26097;42.366;23.818;2023-02-22T11:08:38;93843.94;;;16.11;34.33
40384;BME280;26097;42.366;23.818;2023-02-22T11:11:42;93842.72;;;15.97;34.08
40384;BME280;26097;42.366;23.818;2023-02-22T11:14:44;93830.94;;;16.09;34.18
40384;BME280;26097;42.366;23.818;2023-02-22T11:17:48;93825.44;;;16.29;34.24
40384;BME280;26097;42.366;23.818;2023-02-22T11:20:58;93839.28;;;16.31;33.67
40384;BME280;26097;42.366;23.818;2023-02-22T11:24:08;93820.25;;;16.46;34.31
40384;BME280;26097;42.366;23.818;2023-02-22T11:27:42;93827.78;;;16.40;32.66
40384;BME280;26097;42.366;23.818;2023-02-22T11:30:45;93822.19;;;16.35;33.07
40384;BME280;26097;42.366;23.818;2023-02-22T11:33:54;93827.16;;;16.47;32.50
40384;BME280;26097;42.366;23.818;2023-02-22T11:37:34;93821.69;;;16.40;31.60
40384;BME280;26097;42.366;23.818;2023-02-22T11:40:35;93808.44;;;16.58;32.32
40384;BME280;26097;42.366;23.818;2023-02-22T11:43:35;93821.44;;;16.60;31.56
40384;BME280;26097;42.366;23.818;2023-02-22T11:46:39;93816.63;;;16.47;31.95
40384;BME280;26097;42.366;23.818;2023-02-22T11:49:42;93819.25;;;16.47;32.11
40384;BME280;26097;42.366;23.818;2023-02-22T11:52:48;93811.22;;;16.56;31.53
40384;BME280;26097;42.366;23.818;2023-02-22T11:59:40;93802.41;;;16.74;31.57
40384;BME280;26097;42.366;23.818;2023-02-22T12:09:34;93790.69;;;16.68;31.70
40384;BME280;26097;42.366;23.818;2023-02-22T12:15:54;93791.22;;;16.72;31.60
40384;BME280;26097;42.366;23.818;2023-02-22T12:22:07;93771.50;;;16.84;31.38
40384;BME280;26097;42.366;23.818;2023-02-22T12:25:20;93775.28;;;16.82;31.59
40384;BME280;26097;42.366;23.818;2023-02-22T12:28:29;93761.28;;;16.98;31.67
40384;BME280;26097;42.366;23.818;2023-02-22T12:31:41;93754.88;;;16.84;31.50
40384;BME280;26097;42.366;23.818;2023-02-22T12:41:24;93764.09;;;16.96;31.74
40384;BME280;26097;42.366;23.818;2023-02-22T12:44:34;93752.94;;;17.03;31.73
40384;BME280;26097;42.366;23.818;2023-02-22T12:47:43;93766.94;;;17.11;32.27
40384;BME280;26097;42.366;23.818;2023-02-22T12:50:46;93760.19;;;17.01;31.87
40384;BME280;26097;42.366;23.818;2023-02-22T12:54:36;93765.75;;;16.97;31.74
40384;BME280;26097;42.366;23.818;2023-02-22T13:01:18;93748.81;;;17.17;31.95
40384;BME280;26097;42.366;23.818;2023-02-22T13:04:20;93756.56;;;17.18;31.56
40384;BME280;26097;42.366;23.818;2023-02-22T13:07:24;93756.22;;;17.05;31.64
40384;BME280;26097;42.366;23.818;2023-02-22T13:14:04;93743.03;;;16.96;31.83
40384;BME280;26097;42.366;23.818;2023-02-22T13:26:56;93738.44;;;17.23;32.09
40384;BME280;26097;42.366;23.818;2023-02-22T13:29:59;93734.47;;;17.27;31.98
40384;BME280;26097;42.366;23.818;2023-02-22T13:33:10;93731.22;;;17.34;31.05
40384;BME280;26097;42.366;23.818;2023-02-22T13:52:21;93733.50;;;17.37;30.79
40384;BME280;26097;42.366;23.818;2023-02-22T13:55:27;93734.81;;;17.41;30.82
40384;BME280;26097;42.366;23.818;2023-02-22T13:58:30;93740.72;;;17.51;30.69
40384;BME280;26097;42.366;23.818;2023-02-22T14:01:46;93734.00;;;17.40;30.25
40384;BME280;26097;42.366;23.818;2023-02-22T14:04:46;93739.41;;;17.47;29.94
40384;BME280;26097;42.366;23.818;2023-02-22T14:07:47;93729.53;;;17.41;30.52
40384;BME280;26097;42.366;23.818;2023-02-22T14:17:21;93753.09;;;17.09;31.33
40384;BME280;26097;42.366;23.818;2023-02-22T14:20:36;93739.09;;;17.09;31.65
40384;BME280;26097;42.366;23.818;2023-02-22T14:23:40;93745.38;;;17.16;31.37
40384;BME280;26097;42.366;23.818;2023-02-22T14:26:54;93735.84;;;16.98;31.38
40384;BME280;26097;42.366;23.818;2023-02-22T14:29:57;93740.63;;;17.03;31.59
40384;BME280;26097;42.366;23.818;2023-02-22T14:32:59;93743.72;;;17.07;32.29
40384;BME280;26097;42.366;23.818;2023-02-22T14:36:00;93739.13;;;17.01;32.42
40384;BME280;26097;42.366;23.818;2023-02-22T14:39:19;93733.19;;;17.07;32.13
40384;BME280;26097;42.366;23.818;2023-02-22T14:45:26;93735.63;;;16.75;32.14
40384;BME280;26097;42.366;23.818;2023-02-22T14:48:35;93735.44;;;16.68;32.74
40384;BME280;26097;42.366;23.818;2023-02-22T14:51:48;93736.09;;;16.62;33.39
40384;BME280;26097;42.366;23.818;2023-02-22T14:55:01;93732.81;;;16.60;33.30
40384;BME280;26097;42.366;23.818;2023-02-22T14:58:15;93737.53;;;16.40;34.04
40384;BME280;26097;42.366;23.818;2023-02-22T15:04:21;93739.28;;;16.15;34.63
40384;BME280;26097;42.366;23.818;2023-02-22T15:07:29;93740.88;;;15.99;34.78
40384;BME280;26097;42.366;23.818;2023-02-22T15:10:38;93743.72;;;15.88;34.94
40384;BME280;26097;42.366;23.818;2023-02-22T15:13:52;93739.69;;;15.67;35.20
40384;BME280;26097;42.366;23.818;2023-02-22T15:17:07;93746.25;;;15.63;35.16
40384;BME280;26097;42.366;23.818;2023-02-22T15:20:11;93744.50;;;15.45;35.43
40384;BME280;26097;42.366;23.818;2023-02-22T15:23:14;93735.84;;;15.26;35.35
40384;BME280;26097;42.366;23.818;2023-02-22T15:29:37;93742.22;;;14.97;35.62
40384;BME280;26097;42.366;23.818;2023-02-22T15:32:39;93752.03;;;14.77;36.18
40384;BME280;26097;42.366;23.818;2023-02-22T15:35:40;93744.53;;;14.64;36.18
40384;BME280;26097;42.366;23.818;2023-02-22T15:38:46;93747.00;;;14.48;36.23
40384;BME280;26097;42.366;23.818;2023-02-22T15:41:59;93749.44;;;14.31;36.53
40384;BME280;26097;42.366;23.818;2023-02-22T15:45:01;93747.66;;;14.04;36.92
40384;BME280;26097;42.366;23.818;2023-02-22T15:48:02;93744.41;;;13.92;37.00
40384;BME280;26097;42.366;23.818;2023-02-22T15:51:07;93747.91;;;13.82;36.91
40384;BME280;26097;42.366;23.818;2023-02-22T15:54:08;93748.69;;;13.65;37.17
40384;BME280;26097;42.366;23.818;2023-02-22T15:57:13;93745.00;;;13.57;37.22
40384;BME280;26097;42.366;23.818;2023-02-22T16:00:24;93755.63;;;13.46;37.53
40384;BME280;26097;42.366;23.818;2023-02-22T16:03:53;93754.41;;;13.31;38.06
40384;BME280;26097;42.366;23.818;2023-02-22T16:07:05;93756.38;;;13.09;38.60
40384;BME280;26097;42.366;23.818;2023-02-22T16:10:28;93756.25;;;12.91;38.76
40384;BME280;26097;42.366;23.818;2023-02-22T16:13:33;93759.00;;;12.79;39.21
40384;BME280;26097;42.366;23.818;2023-02-22T16:16:38;93760.53;;;12.62;39.79
40384;BME280;26097;42.366;23.818;2023-02-22T16:19:42;93760.81;;;12.59;39.82
40384;BME280;26097;42.366;23.818;2023-02-22T16:22:49;93769.06;;;12.45;40.66
40384;BME280;26097;42.366;23.818;2023-02-22T16:26:17;93769.06;;;12.45;40.75
40384;BME280;26097;42.366;23.818;2023-02-22T16:29:25;93782.22;;;12.23;41.46
40384;BME280;26097;42.366;23.818;2023-02-22T16:32:25;93783.59;;;12.27;41.05
40384;BME280;26097;42.366;23.818;2023-02-22T16:35:27;93777.53;;;12.17;41.26
40384;BME280;26097;42.366;23.818;2023-02-22T16:38:30;93785.09;;;12.20;41.25
40384;BME280;26097;42.366;23.818;2023-02-22T16:41:32;93796.22;;;12.12;40.92
40384;BME280;26097;42.366;23.818;2023-02-22T16:44:32;93792.25;;;11.56;41.83
40384;BME280;26097;42.366;23.818;2023-02-22T16:47:33;93797.75;;;11.32;42.32
40384;BME280;26097;42.366;23.818;2023-02-22T16:50:34;93799.78;;;10.85;42.92
40384;BME280;26097;42.366;23.818;2023-02-22T16:53:35;93801.94;;;10.36;44.09
40384;BME280;26097;42.366;23.818;2023-02-22T16:56:37;93802.81;;;10.14;45.72
40384;BME280;26097;42.366;23.818;2023-02-22T16:59:39;93814.56;;;9.74;45.29
40384;BME280;26097;42.366;23.818;2023-02-22T17:02:40;93824.69;;;9.43;46.16
40384;BME280;26097;42.366;23.818;2023-02-22T17:05:40;93818.03;;;9.16;46.45
40384;BME280;26097;42.366;23.818;2023-02-22T17:08:41;93822.47;;;9.03;46.67
40384;BME280;26097;42.366;23.818;2023-02-22T17:11:42;93826.63;;;8.69;47.23
40384;BME280;26097;42.366;23.818;2023-02-22T17:14:44;93821.94;;;8.50;47.52
40384;BME280;26097;42.366;23.818;2023-02-22T17:17:45;93833.22;;;8.25;49.28
40384;BME280;26097;42.366;23.818;2023-02-22T17:20:45;93836.00;;;7.97;49.29
40384;BME280;26097;42.366;23.818;2023-02-22T17:23:46;93837.66;;;7.85;49.25
40384;BME280;26097;42.366;23.818;2023-02-22T17:26:46;93835.22;;;7.71;49.67
40384;BME280;26097;42.366;23.818;2023-02-22T17:29:47;93838.56;;;7.47;50.99
40384;BME280;26097;42.366;23.818;2023-02-22T17:32:48;93844.78;;;7.32;50.94
40384;BME280;26097;42.366;23.818;2023-02-22T17:35:49;93846.00;;;7.13;51.79
40384;BME280;26097;42.366;23.818;2023-02-22T17:38:50;93838.50;;;6.95;52.59
40384;BME280;26097;42.366;23.818;2023-02-22T17:41:50;93844.47;;;6.83;53.45
40384;BME280;26097;42.366;23.818;2023-02-22T17:44:56;93853.06;;;6.70;53.70
40384;BME280;26097;42.366;23.818;2023-02-22T17:47:57;93847.66;;;6.61;54.32
40384;BME280;26097;42.366;23.818;2023-02-22T17:50:58;93852.94;;;6.45;55.41
40384;BME280;26097;42.366;23.818;2023-02-22T17:53:59;93849.13;;;6.23;55.78
40384;BME280;26097;42.366;23.818;2023-02-22T17:56:59;93853.03;;;6.16;56.91
40384;BME280;26097;42.366;23.818;2023-02-22T18:00:02;93845.38;;;5.99;57.04
40384;BME280;26097;42.366;23.818;2023-02-22T18:03:16;93847.31;;;5.96;57.15
40384;BME280;26097;42.366;23.818;2023-02-22T18:06:21;93846.66;;;5.92;57.32
40384;BME280;26097;42.366;23.818;2023-02-22T18:09:22;93849.00;;;5.82;58.53
40384;BME280;26097;42.366;23.818;2023-02-22T18:12:22;93849.00;;;5.82;58.10
40384;BME280;26097;42.366;23.818;2023-02-22T18:15:23;93851.22;;;5.74;58.30
40384;BME280;26097;42.366;23.818;2023-02-22T18:18:27;93846.25;;;5.71;59.10
40384;BME280;26097;42.366;23.818;2023-02-22T18:21:27;93845.97;;;5.61;59.53
40384;BME280;26097;42.366;23.818;2023-02-22T18:24:31;93850.69;;;5.54;61.32
40384;BME280;26097;42.366;23.818;2023-02-22T18:27:33;93851.97;;;5.62;60.43
40384;BME280;26097;42.366;23.818;2023-02-22T18:30:36;93858.97;;;5.45;61.56